Time;durP1;ratioP1;P1;durP2;ratioP2;P2;SDS_P1;SDS_P2;PMS_P1;PMS_P2;Temp;Humidity;BMP_temperature;BMP_pressure;BME280_temperature;BME280_humidity;BME280_pressure;Samples;Min_cycle;Max_cycle;Signal;HPM_P1;HPM_P2
2021/01/09 00:02:00;;;;;;;19.73;9.57;;;-0.60;99.90;;;;;;4886905;29;20060;-91
2021/01/09 00:04:26;;;;;;;19.90;10.13;;;-0.60;99.90;;;;;;4902093;29;20132;-90
2021/01/09 00:07:06;;;;;;;19.63;9.97;;;-0.70;99.90;;;;;;4902925;29;20045;-92
2021/01/09 00:09:31;;;;;;;21.93;10.43;;;-0.70;99.90;;;;;;4888646;29;20044;-90
2021/01/09 00:12:12;;;;;;;18.83;9.13;;;-0.70;99.90;;;;;;4929220;29;20690;-92
2021/01/09 00:14:38;;;;;;;20.70;9.40;;;-0.70;99.90;;;;;;4932277;28;20035;-92
2021/01/09 00:17:05;;;;;;;20.40;9.47;;;-0.60;99.90;;;;;;4984151;28;20175;-86
2021/01/09 00:19:31;;;;;;;16.73;8.10;;;-0.70;99.90;;;;;;4964746;28;20158;-89
2021/01/09 00:21:57;;;;;;;18.10;9.30;;;-0.70;99.90;;;;;;4989939;28;20486;-89
2021/01/09 00:24:25;;;;;;;23.30;10.50;;;-0.70;99.90;;;;;;4999634;28;20019;-94
2021/01/09 00:26:51;;;;;;;17.67;9.40;;;-0.70;99.90;;;;;;4971939;28;20410;-86
2021/01/09 00:29:16;;;;;;;20.30;9.07;;;-0.70;99.90;;;;;;5004430;28;20056;-85
2021/01/09 00:31:42;;;;;;;20.53;9.13;;;-0.70;99.90;;;;;;4981647;28;20513;-85
2021/01/09 00:34:08;;;;;;;17.57;9.57;;;-0.70;99.90;;;;;;4991742;28;20026;-91
2021/01/09 00:36:34;;;;;;;19.07;9.33;;;-0.70;99.90;;;;;;4999139;28;20026;-89
2021/01/09 00:39:03;;;;;;;18.80;9.27;;;-0.80;99.90;;;;;;4984230;28;20100;-89
2021/01/09 00:41:30;;;;;;;17.10;8.13;;;-0.80;99.90;;;;;;4996396;28;20022;-90
2021/01/09 00:43:57;;;;;;;19.63;10.27;;;-0.80;99.90;;;;;;4976246;28;20027;-87
2021/01/09 00:46:23;;;;;;;19.03;9.97;;;-0.80;99.90;;;;;;4993550;28;20034;-88
2021/01/09 00:48:49;;;;;;;19.17;8.90;;;-0.80;99.90;;;;;;4975805;28;20030;-87
2021/01/09 00:51:16;;;;;;;21.37;10.60;;;-0.80;99.90;;;;;;4993218;28;20026;-87
2021/01/09 00:53:42;;;;;;;21.43;10.60;;;-0.80;99.90;;;;;;4994709;28;20080;-88
2021/01/09 00:56:12;;;;;;;18.13;9.03;;;-0.80;99.90;;;;;;4983243;28;20035;-87
2021/01/09 00:58:38;;;;;;;18.27;9.80;;;-0.80;99.90;;;;;;4979319;28;20022;-85
2021/01/09 01:01:03;;;;;;;20.10;9.33;;;-0.80;99.90;;;;;;4977683;28;20041;-86
2021/01/09 01:03:29;;;;;;;19.80;9.73;;;-0.80;99.90;;;;;;4982597;28;20062;-89
2021/01/09 01:05:55;;;;;;;22.00;10.60;;;-0.90;99.90;;;;;;4981975;28;20077;-87
2021/01/09 01:08:21;;;;;;;18.40;9.43;;;-0.90;99.90;;;;;;5001142;28;20097;-87
2021/01/09 01:10:48;;;;;;;20.73;11.17;;;-0.90;99.90;;;;;;4987810;28;20031;-89
2021/01/09 01:13:14;;;;;;;20.90;10.27;;;-0.90;99.90;;;;;;4999567;28;20045;-86
2021/01/09 01:15:40;;;;;;;16.53;8.20;;;-0.90;99.90;;;;;;4998549;28;20050;-87
2021/01/09 01:18:05;;;;;;;21.30;10.47;;;-0.90;99.90;;;;;;5012907;28;20034;-86
2021/01/09 01:20:31;;;;;;;19.17;9.50;;;-0.90;99.90;;;;;;4994939;28;20542;-85
2021/01/09 01:22:57;;;;;;;21.73;10.67;;;-1.00;99.90;;;;;;4994147;28;20520;-85
2021/01/09 01:25:22;;;;;;;21.10;10.10;;;-1.00;99.90;;;;;;4987585;28;20030;-87
2021/01/09 01:27:48;;;;;;;22.37;9.97;;;-1.00;99.90;;;;;;4980318;28;20035;-85
2021/01/09 01:30:14;;;;;;;20.87;10.50;;;-1.00;99.90;;;;;;4984110;28;20023;-84
2021/01/09 01:32:40;;;;;;;22.43;10.53;;;-1.00;99.90;;;;;;5010000;28;20061;-85
2021/01/09 01:35:06;;;;;;;20.57;10.43;;;-1.00;99.90;;;;;;4992662;28;20034;-85
2021/01/09 01:37:32;;;;;;;21.40;11.20;;;-1.00;99.90;;;;;;4983870;28;20061;-82
2021/01/09 01:39:58;;;;;;;22.00;10.93;;;-0.90;99.90;;;;;;5004742;28;20093;-83
2021/01/09 01:42:23;;;;;;;21.57;10.13;;;-1.00;99.90;;;;;;5003666;28;20026;-84
2021/01/09 01:44:49;;;;;;;23.40;11.57;;;-0.90;99.90;;;;;;4998608;28;20039;-86
2021/01/09 01:47:18;;;;;;;21.80;10.07;;;-1.00;99.90;;;;;;4994627;28;20037;-87
2021/01/09 01:49:48;;;;;;;21.93;9.60;;;-1.00;99.90;;;;;;4970016;28;20086;-85
2021/01/09 01:52:17;;;;;;;19.80;10.67;;;-1.00;99.90;;;;;;5009082;28;20026;-84
2021/01/09 01:54:45;;;;;;;22.17;10.05;;;-1.00;99.90;;;;;;4997283;28;20015;-85
2021/01/09 01:57:12;;;;;;;26.70;13.23;;;-1.00;99.90;;;;;;5023197;28;20072;-84
2021/01/09 01:59:38;;;;;;;24.33;10.50;;;-1.00;99.90;;;;;;4984170;28;20026;-84
2021/01/09 02:02:09;;;;;;;18.17;9.20;;;-1.00;99.90;;;;;;4992163;28;20395;-83
2021/01/09 02:04:35;;;;;;;23.43;11.30;;;-1.00;99.90;;;;;;4997687;28;20090;-84
2021/01/09 02:07:08;;;;;;;21.60;10.13;;;-1.00;99.90;;;;;;4971861;28;20110;-84
2021/01/09 02:09:38;;;;;;;18.87;8.40;;;-1.00;99.90;;;;;;4984382;28;20037;-84
2021/01/09 02:12:39;;;;;;;22.60;10.70;;;-1.00;99.90;;;;;;4991744;28;20049;-83
2021/01/09 02:15:06;;;;;;;20.63;9.97;;;-1.00;99.90;;;;;;4969940;28;20098;-84
2021/01/09 02:17:33;;;;;;;24.90;10.67;;;-1.10;99.90;;;;;;4973003;28;20225;-84
2021/01/09 02:19:59;;;;;;;23.63;9.73;;;-1.00;99.90;;;;;;4987823;28;20029;-84
2021/01/09 02:22:25;;;;;;;19.93;9.93;;;-1.00;99.90;;;;;;4976824;28;20046;-85
2021/01/09 02:24:51;;;;;;;21.00;10.20;;;-1.10;99.90;;;;;;4977962;28;20026;-85
2021/01/09 02:27:17;;;;;;;23.33;11.17;;;-1.10;99.90;;;;;;4995234;28;20109;-86
2021/01/09 02:30:07;;;;;;;24.67;11.00;;;-1.00;99.90;;;;;;4993892;28;20470;-85
2021/01/09 02:32:51;;;;;;;23.93;11.90;;;-1.10;99.90;;;;;;4916757;29;20044;-85
2021/01/09 02:35:21;;;;;;;21.63;9.97;;;-1.00;99.90;;;;;;4938225;29;20020;-85
2021/01/09 02:37:47;;;;;;;20.80;9.57;;;-1.10;99.90;;;;;;4945091;29;20051;-85
2021/01/09 02:40:16;;;;;;;20.80;9.80;;;-1.10;99.90;;;;;;4939066;29;20035;-84
2021/01/09 02:42:42;;;;;;;23.88;9.57;;;-1.10;99.90;;;;;;4931119;29;20032;-85
2021/01/09 02:45:09;;;;;;;19.37;10.10;;;-1.10;99.90;;;;;;4931967;29;20145;-85
2021/01/09 02:47:35;;;;;;;22.07;11.23;;;-1.10;99.90;;;;;;4926804;29;20040;-85
2021/01/09 02:50:00;;;;;;;22.37;10.70;;;-1.10;99.90;;;;;;4936066;29;20150;-86
2021/01/09 02:52:26;;;;;;;22.90;10.80;;;-1.10;99.90;;;;;;4929484;29;20108;-88
2021/01/09 02:54:52;;;;;;;22.13;10.47;;;-1.10;99.90;;;;;;4928694;29;20036;-88
2021/01/09 02:57:18;;;;;;;22.87;9.37;;;-1.10;99.90;;;;;;4937215;29;20647;-85
2021/01/09 02:59:43;;;;;;;24.17;10.90;;;-1.10;99.90;;;;;;4934989;29;20032;-86
2021/01/09 03:02:09;;;;;;;19.63;9.47;;;-1.10;99.90;;;;;;4934028;29;20568;-86
2021/01/09 03:04:39;;;;;;;26.30;12.80;;;-1.10;99.90;;;;;;4933276;29;20063;-88
2021/01/09 03:07:04;;;;;;;22.63;11.33;;;-1.10;99.90;;;;;;4919952;29;20058;-89
2021/01/09 03:09:30;;;;;;;20.30;10.33;;;-1.10;99.90;;;;;;4978971;28;20123;-87
2021/01/09 03:11:56;;;;;;;23.63;10.93;;;-1.00;99.90;;;;;;4991182;28;20061;-88
2021/01/09 03:14:21;;;;;;;24.63;11.87;;;-1.00;99.90;;;;;;5008285;28;20071;-87
2021/01/09 03:16:47;;;;;;;25.93;12.03;;;-1.00;99.90;;;;;;4990830;28;20045;-88
2021/01/09 03:19:13;;;;;;;23.00;11.57;;;-1.00;99.90;;;;;;4983929;28;20501;-88
2021/01/09 03:21:38;;;;;;;25.30;11.30;;;-1.10;99.90;;;;;;4979657;28;20026;-90
2021/01/09 03:24:04;;;;;;;22.83;11.13;;;-1.10;99.90;;;;;;4995021;28;20422;-88
2021/01/09 03:26:30;;;;;;;19.47;10.50;;;-1.10;99.90;;;;;;4978965;28;20371;-88
2021/01/09 03:28:57;;;;;;;22.33;11.13;;;-1.10;99.90;;;;;;4987970;28;20038;-87
2021/01/09 03:31:24;;;;;;;24.67;10.93;;;-1.10;99.90;;;;;;4990117;28;20609;-86
2021/01/09 03:33:51;;;;;;;23.10;12.40;;;-1.10;99.90;;;;;;4996720;28;20037;-86
2021/01/09 03:36:17;;;;;;;28.57;12.23;;;-1.10;99.90;;;;;;4985640;28;20060;-86
2021/01/09 03:38:43;;;;;;;23.13;11.27;;;-1.10;99.90;;;;;;4990967;28;20125;-86
2021/01/09 03:41:08;;;;;;;24.70;11.53;;;-1.10;99.90;;;;;;5005710;28;20019;-86
2021/01/09 03:43:34;;;;;;;25.93;12.77;;;-1.10;99.90;;;;;;4993610;28;20045;-87
2021/01/09 03:46:00;;;;;;;23.77;11.03;;;-1.10;99.90;;;;;;4994012;28;20030;-88
2021/01/09 03:48:25;;;;;;;23.73;12.63;;;-1.10;99.90;;;;;;4989656;28;20030;-88
2021/01/09 03:50:51;;;;;;;23.53;11.37;;;-1.10;99.90;;;;;;4998514;28;20040;-88
2021/01/09 03:53:17;;;;;;;24.20;11.60;;;-1.10;99.90;;;;;;4987420;28;20057;-88
2021/01/09 03:55:42;;;;;;;24.73;12.07;;;-1.10;99.90;;;;;;4996591;28;20038;-86
2021/01/09 03:58:08;;;;;;;26.07;12.93;;;-1.10;99.90;;;;;;5014655;28;20065;-87
2021/01/09 04:00:34;;;;;;;24.97;12.13;;;-1.10;99.90;;;;;;4993193;28;20019;-85
2021/01/09 04:02:59;;;;;;;24.33;12.37;;;-1.10;99.90;;;;;;4995340;28;20078;-85
2021/01/09 04:05:27;;;;;;;24.70;12.20;;;-1.10;99.90;;;;;;4976215;28;20279;-87
2021/01/09 04:07:52;;;;;;;23.17;11.40;;;-1.10;99.90;;;;;;4994217;28;20065;-86
2021/01/09 04:10:18;;;;;;;25.63;12.23;;;-1.10;99.90;;;;;;4994442;28;20026;-85
2021/01/09 04:12:44;;;;;;;21.43;11.30;;;-1.10;99.90;;;;;;4976661;28;20566;-84
2021/01/09 04:15:11;;;;;;;27.60;12.37;;;-1.20;99.90;;;;;;4956366;28;20031;-83
2021/01/09 04:17:37;;;;;;;24.20;12.87;;;-1.10;99.90;;;;;;4958700;28;20085;-86
2021/01/09 04:20:03;;;;;;;26.23;12.53;;;-1.10;99.90;;;;;;4954559;28;20693;-85
2021/01/09 04:22:29;;;;;;;28.77;12.43;;;-1.10;99.90;;;;;;4970853;28;20548;-85
2021/01/09 04:24:54;;;;;;;25.40;12.33;;;-1.10;99.90;;;;;;4972858;28;20051;-86
2021/01/09 04:27:20;;;;;;;26.53;13.03;;;-1.10;99.90;;;;;;4942474;28;20509;-85
2021/01/09 04:29:46;;;;;;;26.97;12.73;;;-1.10;99.90;;;;;;4971499;28;20045;-85
2021/01/09 04:32:11;;;;;;;29.30;13.53;;;-1.10;99.90;;;;;;4970356;28;20046;-84
2021/01/09 04:34:37;;;;;;;28.00;13.47;;;-1.10;99.90;;;;;;4954751;28;20056;-85
2021/01/09 04:37:02;;;;;;;25.37;12.50;;;-1.10;99.90;;;;;;4971550;28;20030;-85
2021/01/09 04:39:28;;;;;;;28.20;13.40;;;-1.10;99.90;;;;;;4955561;28;20394;-83
2021/01/09 04:41:54;;;;;;;27.00;12.87;;;-1.10;99.90;;;;;;4955594;28;20077;-86
2021/01/09 04:44:20;;;;;;;25.87;12.57;;;-1.10;99.90;;;;;;4975228;28;20120;-84
2021/01/09 04:46:54;;;;;;;28.40;14.07;;;-1.10;99.90;;;;;;4977075;28;20501;-83
2021/01/09 04:49:21;;;;;;;26.43;13.17;;;-1.10;99.90;;;;;;4979038;28;20041;-84
2021/01/09 04:51:48;;;;;;;28.90;13.53;;;-1.10;99.90;;;;;;4948995;28;20260;-83
2021/01/09 04:54:15;;;;;;;28.00;14.03;;;-1.10;99.90;;;;;;4974480;28;20035;-85
2021/01/09 04:56:44;;;;;;;26.57;14.00;;;-1.10;99.90;;;;;;4973620;28;20045;-84
2021/01/09 04:59:11;;;;;;;29.70;13.77;;;-1.10;99.90;;;;;;4970180;28;20486;-83
2021/01/09 05:01:40;;;;;;;31.60;14.03;;;-1.10;99.90;;;;;;4969098;28;20467;-84
2021/01/09 05:04:05;;;;;;;29.43;14.30;;;-1.20;99.90;;;;;;4969956;28;20031;-85
2021/01/09 05:06:31;;;;;;;32.57;14.67;;;-1.20;99.90;;;;;;4971815;28;20031;-83
2021/01/09 05:08:57;;;;;;;27.00;13.57;;;-1.20;99.90;;;;;;4972508;28;20034;-86
2021/01/09 05:11:23;;;;;;;27.37;14.27;;;-1.20;99.90;;;;;;4959230;28;20057;-84
2021/01/09 05:13:49;;;;;;;27.50;13.70;;;-1.20;99.90;;;;;;4990312;28;20117;-85
2021/01/09 05:16:17;;;;;;;28.07;13.97;;;-1.20;99.90;;;;;;4964526;28;20050;-85
2021/01/09 05:18:42;;;;;;;28.73;13.87;;;-1.20;99.90;;;;;;4991070;28;20398;-84
2021/01/09 05:21:10;;;;;;;28.97;14.77;;;-1.20;99.90;;;;;;4974502;28;20031;-84
2021/01/09 05:23:51;;;;;;;30.10;13.00;;;-1.20;99.90;;;;;;4974999;28;20065;-84
2021/01/09 05:26:18;;;;;;;29.83;14.27;;;-1.30;99.90;;;;;;4983819;28;20062;-84
2021/01/09 05:28:55;;;;;;;30.07;13.93;;;-1.30;99.90;;;;;;4990727;28;20033;-84
2021/01/09 05:31:23;;;;;;;29.07;13.93;;;-1.30;99.90;;;;;;4972039;28;20125;-86
2021/01/09 05:33:50;;;;;;;35.13;15.27;;;-1.30;99.90;;;;;;4989091;28;20115;-83
2021/01/09 05:36:17;;;;;;;27.13;13.87;;;-1.30;99.90;;;;;;4958339;28;20030;-84
2021/01/09 05:38:44;;;;;;;29.00;13.97;;;-1.20;99.90;;;;;;4992203;28;20014;-83
2021/01/09 05:41:13;;;;;;;30.10;13.90;;;-1.20;99.90;;;;;;4993888;28;20121;-83
2021/01/09 05:43:39;;;;;;;27.93;13.67;;;-1.20;99.90;;;;;;4992094;28;20073;-84
2021/01/09 05:46:07;;;;;;;27.93;13.33;;;-1.20;99.90;;;;;;4966323;28;20506;-85
2021/01/09 05:48:34;;;;;;;27.47;14.10;;;-1.20;99.90;;;;;;4965578;28;20113;-84
2021/01/09 05:51:03;;;;;;;31.30;14.47;;;-1.20;99.90;;;;;;5008276;28;20062;-88
2021/01/09 05:53:45;;;;;;;27.98;13.50;;;-1.30;99.90;;;;;;4995462;28;20050;-84
2021/01/09 05:56:14;;;;;;;26.60;12.73;;;-1.20;99.90;;;;;;4993221;28;20034;-84
2021/01/09 05:58:40;;;;;;;;;;;-1.20;99.90;;;;;;4982715;28;20113;-85
2021/01/09 06:01:11;;;;;;;29.07;13.07;;;-1.30;99.90;;;;;;5013638;28;19913;-85
2021/01/09 06:03:53;;;;;;;26.23;12.67;;;-1.20;99.90;;;;;;5017477;28;20038;-85
2021/01/09 06:06:45;;;;;;;28.53;12.20;;;-1.20;99.90;;;;;;5015958;28;20215;-87
2021/01/09 06:09:20;;;;;;;26.83;11.73;;;-1.20;99.90;;;;;;4994354;28;20076;-84
2021/01/09 06:11:47;;;;;;;29.93;14.23;;;-1.20;99.90;;;;;;4995813;28;20056;-84
2021/01/09 06:14:14;;;;;;;26.87;12.60;;;-1.30;99.90;;;;;;4966410;28;20061;-85
2021/01/09 06:16:42;;;;;;;31.40;14.20;;;-1.30;99.90;;;;;;4994704;28;20030;-85
2021/01/09 06:19:08;;;;;;;25.07;12.60;;;-1.30;99.90;;;;;;4985079;28;20462;-85
2021/01/09 06:21:36;;;;;;;28.00;13.63;;;-1.40;99.90;;;;;;4977677;28;20092;-86
2021/01/09 06:24:04;;;;;;;26.80;13.03;;;-1.40;99.90;;;;;;4978630;28;20030;-85
2021/01/09 06:26:30;;;;;;;31.30;13.47;;;-1.40;99.90;;;;;;4984389;28;20461;-85
2021/01/09 06:29:26;;;;;;;27.17;13.13;;;-1.40;99.90;;;;;;4996970;28;20049;-87
2021/01/09 06:32:03;;;;;;;27.40;12.67;;;-1.40;99.90;;;;;;5000748;28;20043;-84
2021/01/09 06:34:30;;;;;;;24.03;11.70;;;-1.40;99.90;;;;;;4989281;28;20101;-76
2021/01/09 06:36:58;;;;;;;29.20;13.90;;;-1.40;99.90;;;;;;4991504;28;20405;-76
2021/01/09 06:39:26;;;;;;;24.07;11.83;;;-1.40;99.90;;;;;;4972237;28;20069;-78
2021/01/09 06:41:57;;;;;;;27.57;12.67;;;-1.40;99.90;;;;;;4991204;28;20387;-76
2021/01/09 06:44:25;;;;;;;27.40;12.43;;;-1.30;99.90;;;;;;4989660;28;20046;-81
2021/01/09 06:46:55;;;;;;;28.80;13.57;;;-1.40;99.90;;;;;;4993431;28;20034;-81
2021/01/09 06:49:22;;;;;;;26.83;13.13;;;-1.40;99.90;;;;;;4975754;28;20483;-82
2021/01/09 06:51:57;;;;;;;26.13;12.77;;;-1.30;99.90;;;;;;4994636;28;20399;-81
2021/01/09 06:54:27;;;;;;;26.83;13.37;;;-1.40;99.90;;;;;;4999771;28;20462;-80
2021/01/09 06:57:05;;;;;;;27.70;12.97;;;-1.30;99.90;;;;;;4997515;28;20022;-81
2021/01/09 06:59:39;;;;;;;28.10;13.53;;;-1.30;99.90;;;;;;4996532;28;20045;-86
2021/01/09 07:02:11;;;;;;;23.70;12.13;;;-1.30;99.90;;;;;;4996324;28;20030;-83
2021/01/09 07:05:00;;;;;;;26.83;13.60;;;-1.30;99.90;;;;;;4974118;28;20030;-84
2021/01/09 07:07:34;;;;;;;23.73;11.27;;;-1.30;99.90;;;;;;4992859;28;20065;-86
2021/01/09 07:10:05;;;;;;;28.13;12.87;;;-1.30;99.90;;;;;;4992969;28;20289;-85
2021/01/09 07:12:32;;;;;;;27.97;12.97;;;-1.30;99.90;;;;;;4991764;28;20061;-84
2021/01/09 07:15:02;;;;;;;27.87;12.23;;;-1.30;99.90;;;;;;4987772;28;20066;-83
2021/01/09 07:17:36;;;;;;;29.40;14.47;;;-1.30;99.90;;;;;;4977783;28;20042;-86
2021/01/09 07:20:03;;;;;;;27.93;13.80;;;-1.30;99.90;;;;;;4989654;28;20085;-85
2021/01/09 07:22:31;;;;;;;26.83;13.10;;;-1.30;99.90;;;;;;4975856;28;20034;-82
2021/01/09 07:25:00;;;;;;;28.80;12.73;;;-1.20;99.90;;;;;;4992945;28;20069;-85
2021/01/09 07:27:44;;;;;;;25.58;12.40;;;-1.20;99.90;;;;;;4990776;28;20105;-79
2021/01/09 07:30:13;;;;;;;28.73;13.50;;;-1.20;99.90;;;;;;4986854;28;20038;-77
2021/01/09 07:32:50;;;;;;;27.83;13.52;;;-1.10;99.90;;;;;;4989029;28;20042;-77
2021/01/09 07:35:30;;;;;;;26.87;12.57;;;-1.10;99.90;;;;;;4990541;28;20027;-78
2021/01/09 07:38:03;;;;;;;26.70;12.93;;;-1.10;99.90;;;;;;4989769;28;20030;-80
2021/01/09 07:40:33;;;;;;;25.00;11.97;;;-1.10;99.90;;;;;;4987750;28;20025;-78
2021/01/09 07:42:59;;;;;;;24.98;11.38;;;-1.10;99.90;;;;;;4988913;28;20070;-78
2021/01/09 07:45:31;;;;;;;27.53;12.20;;;-1.10;99.90;;;;;;4990085;28;20058;-77
2021/01/09 07:47:57;;;;;;;28.13;12.10;;;-1.00;99.90;;;;;;4989103;28;20030;-76
2021/01/09 07:50:23;;;;;;;25.93;12.70;;;-1.00;99.90;;;;;;4990626;28;20109;-81
2021/01/09 07:53:09;;;;;;;23.70;12.97;;;-0.90;99.90;;;;;;4989421;28;20444;-80
2021/01/09 07:55:45;;;;;;;25.77;12.40;;;-0.90;99.90;;;;;;4986613;28;20038;-86
2021/01/09 07:58:12;;;;;;;25.97;11.73;;;-0.90;99.90;;;;;;4972021;28;21180;-77
2021/01/09 08:00:42;;;;;;;24.77;11.63;;;-0.90;99.90;;;;;;4987546;28;20022;-78
2021/01/09 08:03:10;;;;;;;22.85;11.45;;;-0.80;99.90;;;;;;4995714;28;20042;-87
2021/01/09 08:05:37;;;;;;;25.10;13.30;;;-0.80;99.90;;;;;;4981213;28;20038;-88
2021/01/09 08:08:07;;;;;;;24.17;11.97;;;-0.80;99.90;;;;;;4976639;28;20152;-88
2021/01/09 08:10:34;;;;;;;25.07;12.30;;;-0.80;99.90;;;;;;4957910;28;20030;-78
2021/01/09 08:13:05;;;;;;;22.87;11.33;;;-0.80;99.90;;;;;;4973845;28;20490;-78
2021/01/09 08:20:58;;;;;;;20.23;9.27;;;-0.80;99.90;;;;;;5735509;23;20089;-89
2021/01/09 08:23:29;;;;;;;19.37;10.63;;;-0.90;99.90;;;;;;5053716;28;20029;-89
2021/01/09 08:26:09;;;;;;;19.00;8.27;;;-1.00;99.90;;;;;;5056314;28;20429;-89
2021/01/09 08:28:38;;;;;;;21.63;8.47;;;-1.10;99.90;;;;;;5076823;28;20044;-90
2021/01/09 08:31:07;;;;;;;16.67;8.50;;;-1.00;99.90;;;;;;5075905;28;20024;-89
2021/01/09 08:34:07;;;;;;;17.87;8.37;;;-1.00;99.90;;;;;;5073050;28;20049;-88
2021/01/09 08:36:33;;;;;;;;;;;-1.00;99.90;;;;;;4977254;28;20034;-82
2021/01/09 08:39:06;;;;;;;17.23;7.53;;;-1.10;99.90;;;;;;4993270;28;19906;-84
2021/01/09 08:42:03;;;;;;;15.73;8.17;;;-1.00;99.90;;;;;;5000455;28;20046;-89
2021/01/09 08:44:32;;;;;;;16.73;7.37;;;-1.00;99.90;;;;;;4998217;28;20034;-87
2021/01/09 08:46:59;;;;;;;15.87;7.83;;;-0.90;99.90;;;;;;4995546;28;20045;-86
2021/01/09 08:49:25;;;;;;;18.90;9.03;;;-0.80;99.90;;;;;;4980824;28;20061;-88
2021/01/09 08:52:02;;;;;;;16.33;8.20;;;-0.80;99.90;;;;;;4990368;28;20113;-88
2021/01/09 08:58:37;;;;;;;18.17;8.40;;;-0.70;99.90;;;;;;4991355;28;20054;-88
2021/01/09 09:01:14;;;;;;;16.17;7.20;;;-0.60;99.90;;;;;;4986389;28;20038;-88
2021/01/09 09:03:51;;;;;;;15.43;7.77;;;-0.70;99.90;;;;;;5001720;28;20138;-87
2021/01/09 09:06:30;;;;;;;15.10;7.97;;;-0.70;99.90;;;;;;5014967;28;20055;-86
2021/01/09 09:08:58;;;;;;;16.55;7.80;;;-0.50;99.90;;;;;;4997095;28;20137;-89
2021/01/09 09:11:26;;;;;;;15.43;7.63;;;-0.60;99.90;;;;;;4985090;28;20050;-89
2021/01/09 09:14:08;;;;;;;16.10;7.90;;;-0.50;99.90;;;;;;5016310;28;20029;-87
2021/01/09 09:16:38;;;;;;;15.33;7.63;;;-0.60;99.90;;;;;;5072218;28;20059;-88
2021/01/09 09:19:18;;;;;;;15.88;7.20;;;-0.60;99.90;;;;;;5076910;28;20017;-89
2021/01/09 09:21:48;;;;;;;16.07;7.57;;;-0.50;99.90;;;;;;5064643;28;20056;-90
2021/01/09 09:24:20;;;;;;;14.33;7.00;;;-0.50;99.90;;;;;;5068237;28;20112;-88
2021/01/09 09:26:47;;;;;;;15.90;8.40;;;-0.50;99.90;;;;;;5067839;28;20040;-89
2021/01/09 09:29:16;;;;;;;18.20;8.07;;;-0.40;99.90;;;;;;5083408;28;20032;-89
2021/01/09 09:31:46;;;;;;;14.68;7.40;;;-0.40;99.90;;;;;;5073132;28;20037;-90
2021/01/09 09:34:15;;;;;;;17.27;8.00;;;-0.40;99.90;;;;;;5082182;28;20021;-87
2021/01/09 09:36:59;;;;;;;15.07;7.20;;;-0.40;99.90;;;;;;5048241;28;20036;-88
2021/01/09 09:39:25;;;;;;;15.33;8.30;;;-0.30;99.90;;;;;;5080590;28;20075;-84
2021/01/09 09:42:04;;;;;;;14.13;7.87;;;-0.20;99.90;;;;;;5076564;28;20035;-87
2021/01/09 09:44:45;;;;;;;14.13;7.67;;;-0.20;99.90;;;;;;5062243;28;20032;-89
2021/01/09 09:47:27;;;;;;;14.83;8.07;;;-0.20;99.90;;;;;;5063617;28;20035;-89
2021/01/09 09:49:58;;;;;;;16.63;8.30;;;-0.10;99.90;;;;;;5086524;28;20092;-88
2021/01/09 09:52:26;;;;;;;17.67;9.20;;;0.00;99.90;;;;;;5096881;28;20037;-88
2021/01/09 09:55:07;;;;;;;18.02;8.80;;;0.10;99.90;;;;;;5089658;28;20036;-85
2021/01/09 09:57:33;;;;;;;16.73;8.63;;;0.10;99.90;;;;;;5070053;28;20071;-86
2021/01/09 10:00:06;;;;;;;14.93;8.65;;;0.20;99.90;;;;;;5092767;28;20021;-84
2021/01/09 10:02:32;;;;;;;16.67;8.63;;;0.30;99.90;;;;;;5094503;28;20036;-86
2021/01/09 10:04:58;;;;;;;19.55;8.80;;;0.20;99.90;;;;;;5095562;28;20028;-84
2021/01/09 10:07:24;;;;;;;20.02;10.48;;;0.00;99.90;;;;;;5087783;28;20082;-84
2021/01/09 10:09:51;;;;;;;17.55;9.88;;;0.10;99.90;;;;;;5078608;28;20024;-82
2021/01/09 10:12:16;;;;;;;19.02;9.90;;;0.30;99.90;;;;;;5078180;28;20033;-81
2021/01/09 10:14:43;;;;;;;19.65;10.45;;;0.50;99.90;;;;;;5076971;28;20043;-83
2021/01/09 10:17:16;;;;;;;20.38;11.13;;;0.70;99.90;;;;;;5078272;28;20044;-83
2021/01/09 10:19:43;;;;;;;21.27;10.82;;;0.70;99.90;;;;;;5056306;28;20092;-82
2021/01/09 10:22:09;;;;;;;19.98;11.25;;;0.40;99.90;;;;;;5077843;28;20044;-82
2021/01/09 10:24:35;;;;;;;19.88;10.90;;;0.50;99.90;;;;;;5076416;28;20482;-82
2021/01/09 10:27:04;;;;;;;18.70;10.50;;;0.60;99.90;;;;;;5077710;28;20029;-83
2021/01/09 10:29:30;;;;;;;19.67;10.65;;;0.70;99.90;;;;;;5071559;28;20032;-82
2021/01/09 10:31:55;;;;;;;20.70;11.30;;;0.80;99.90;;;;;;5059978;28;20143;-81
2021/01/09 10:34:21;;;;;;;19.75;10.75;;;0.90;99.90;;;;;;5070354;28;20070;-81
2021/01/09 10:36:47;;;;;;;20.38;10.98;;;1.00;99.90;;;;;;5055993;28;20024;-83
2021/01/09 10:39:12;;;;;;;20.33;11.50;;;1.00;99.90;;;;;;5069782;28;20020;-82
2021/01/09 10:41:39;;;;;;;19.33;11.70;;;1.00;99.90;;;;;;5070176;28;20024;-82
2021/01/09 10:44:05;;;;;;;21.95;11.02;;;1.10;99.90;;;;;;5071544;28;20743;-82
2021/01/09 10:46:32;;;;;;;18.02;9.68;;;1.00;99.90;;;;;;5068668;28;20025;-83
2021/01/09 10:48:58;;;;;;;21.67;10.68;;;0.50;99.90;;;;;;5071245;28;20085;-83
2021/01/09 10:51:26;;;;;;;20.33;10.77;;;0.60;99.90;;;;;;5068485;28;20040;-80
2021/01/09 10:53:51;;;;;;;19.17;9.55;;;0.60;99.90;;;;;;5076505;28;20031;-82
2021/01/09 10:56:18;;;;;;;17.63;10.30;;;0.60;99.90;;;;;;5064028;28;20094;-82
2021/01/09 10:58:43;;;;;;;20.50;11.60;;;0.80;99.90;;;;;;5053704;28;20051;-83
2021/01/09 11:01:09;;;;;;;22.92;11.00;;;1.00;99.90;;;;;;5053250;28;20444;-83
2021/01/09 11:03:36;;;;;;;21.27;11.85;;;1.10;99.90;;;;;;5071281;28;20031;-84
2021/01/09 11:06:02;;;;;;;21.27;11.68;;;1.20;99.90;;;;;;5069460;28;20517;-82
2021/01/09 11:08:28;;;;;;;20.92;11.07;;;1.30;99.90;;;;;;5072347;28;20040;-81
2021/01/09 11:10:54;;;;;;;20.10;11.13;;;0.80;99.90;;;;;;5055870;28;20029;-87
2021/01/09 11:13:20;;;;;;;19.83;10.57;;;0.90;99.90;;;;;;5089010;28;20041;-88
2021/01/09 11:15:47;;;;;;;23.20;12.15;;;1.10;99.90;;;;;;5078943;28;20031;-81
2021/01/09 11:18:13;;;;;;;21.67;11.88;;;1.30;99.90;;;;;;5060037;28;20035;-81
2021/01/09 11:20:44;;;;;;;20.00;11.50;;;1.50;99.90;;;;;;5079054;28;20075;-80
2021/01/09 11:23:09;;;;;;;17.45;10.50;;;1.60;99.90;;;;;;5057370;28;20035;-84
2021/01/09 11:25:35;;;;;;;18.58;9.98;;;1.80;99.90;;;;;;5062739;28;20028;-86
2021/01/09 11:28:01;;;;;;;10.77;5.63;;;1.80;99.90;;;;;;5073940;28;20024;-79
2021/01/09 11:30:27;;;;;;;14.60;8.43;;;1.30;99.90;;;;;;5051657;28;20044;-77
2021/01/09 11:32:52;;;;;;;13.40;7.70;;;1.20;99.90;;;;;;5069660;28;20041;-79
2021/01/09 11:35:18;;;;;;;15.25;8.48;;;1.50;99.90;;;;;;5069668;28;20048;-80
2021/01/09 11:37:44;;;;;;;15.70;9.00;;;1.60;99.90;;;;;;5069235;28;20396;-83
2021/01/09 11:40:10;;;;;;;18.30;9.45;;;2.00;99.90;;;;;;5068475;28;20115;-81
2021/01/09 11:42:35;;;;;;;20.95;10.32;;;2.10;99.90;;;;;;5072829;28;20028;-82
2021/01/09 11:45:02;;;;;;;20.95;11.40;;;2.00;99.90;;;;;;5073440;28;20404;-82
2021/01/09 11:47:27;;;;;;;20.58;10.55;;;1.80;99.90;;;;;;5069449;28;20480;-81
2021/01/09 11:49:54;;;;;;;22.25;11.32;;;1.50;99.90;;;;;;5066623;28;20033;-86
2021/01/09 11:52:19;;;;;;;20.27;11.85;;;1.50;99.90;;;;;;5071711;28;20040;-86
2021/01/09 11:54:45;;;;;;;24.15;12.07;;;1.70;99.90;;;;;;5073702;28;20028;-86
2021/01/09 11:57:11;;;;;;;21.70;11.93;;;1.60;99.90;;;;;;5071618;28;20135;-86
2021/01/09 11:59:37;;;;;;;20.30;9.80;;;1.90;99.90;;;;;;5069524;28;20054;-80
2021/01/09 12:02:03;;;;;;;26.15;13.43;;;1.50;99.90;;;;;;5066991;28;20433;-80
2021/01/09 12:04:28;;;;;;;27.73;14.00;;;1.50;99.90;;;;;;5067938;28;20119;-80
2021/01/09 12:07:00;;;;;;;23.02;12.40;;;1.60;99.90;;;;;;5068154;28;20029;-83
2021/01/09 12:09:26;;;;;;;22.35;12.82;;;1.60;99.90;;;;;;5051136;28;20033;-85
2021/01/09 12:11:55;;;;;;;22.48;11.88;;;1.70;99.90;;;;;;5046711;28;20036;-81
2021/01/09 12:14:21;;;;;;;23.23;12.27;;;1.40;99.90;;;;;;5069217;28;20029;-80
2021/01/09 12:16:47;;;;;;;17.05;10.32;;;1.20;99.90;;;;;;5068694;28;20035;-83
2021/01/09 12:19:12;;;;;;;15.27;9.00;;;1.20;99.90;;;;;;5052324;28;20036;-86
2021/01/09 12:21:38;;;;;;;17.33;9.35;;;0.90;99.90;;;;;;5064452;28;20052;-82
2021/01/09 12:24:04;;;;;;;12.60;6.60;;;0.80;99.90;;;;;;5095532;28;20028;-82
2021/01/09 12:26:31;;;;;;;15.45;8.10;;;0.80;99.90;;;;;;5091899;28;20036;-83
2021/01/09 12:28:56;;;;;;;17.63;9.85;;;0.70;99.90;;;;;;5090355;28;20430;-82
2021/01/09 12:31:36;;;;;;;17.35;10.20;;;0.70;99.90;;;;;;5070122;28;20060;-83
2021/01/09 12:34:02;;;;;;;20.45;11.85;;;0.80;99.90;;;;;;5065721;28;20025;-83
2021/01/09 12:36:28;;;;;;;19.88;9.52;;;0.60;99.90;;;;;;5053257;28;20491;-82
2021/01/09 12:38:54;;;;;;;18.40;8.93;;;0.70;99.90;;;;;;5072244;28;20050;-81
2021/01/09 12:41:20;;;;;;;21.42;11.32;;;0.70;99.90;;;;;;5057373;28;20088;-82
2021/01/09 12:43:47;;;;;;;24.45;12.57;;;0.60;99.90;;;;;;5074698;28;20024;-81
2021/01/09 12:46:13;;;;;;;25.45;12.38;;;0.70;99.90;;;;;;5064404;28;20045;-83
2021/01/09 12:48:39;;;;;;;22.27;12.50;;;0.70;99.90;;;;;;5082604;28;20414;-81
2021/01/09 12:51:05;;;;;;;23.92;12.18;;;0.80;99.90;;;;;;5074803;28;20115;-82